Time;durP1;ratioP1;P1;durP2;ratioP2;P2;SDS_P1;SDS_P2;PMS_P1;PMS_P2;Temp;Humidity;BMP_temperature;BMP_pressure;BME280_temperature;BME280_humidity;BME280_pressure;Samples;Min_cycle;Max_cycle;Signal;HPM_P1;HPM_P2
2021/12/26 00:02:04;;;;;;;1.10;1.10;;;16.60;66.10;;;;;;5066817;28;43995;-68
2021/12/26 00:04:33;;;;;;;1.10;1.10;;;16.60;66.40;;;;;;5067129;28;43514;-69
2021/12/26 00:07:02;;;;;;;1.23;1.23;;;16.60;66.60;;;;;;5066264;28;43914;-69
2021/12/26 00:09:30;;;;;;;1.10;1.10;;;16.50;66.60;;;;;;5065378;28;45219;-69
2021/12/26 00:11:58;;;;;;;1.00;1.00;;;16.50;66.60;;;;;;5067097;28;43928;-69
2021/12/26 00:14:26;;;;;;;1.20;1.20;;;16.50;66.80;;;;;;5067442;28;43586;-68
2021/12/26 00:16:54;;;;;;;1.10;1.10;;;16.50;66.90;;;;;;5066801;28;43971;-68
2021/12/26 00:19:22;;;;;;;1.23;1.23;;;16.60;66.60;;;;;;5066977;28;43440;-68
2021/12/26 00:21:50;;;;;;;1.10;1.10;;;16.70;66.20;;;;;;5066385;28;44205;-68
2021/12/26 00:24:20;;;;;;;1.10;1.10;;;16.70;66.00;;;;;;5067086;28;43922;-69
2021/12/26 00:26:49;;;;;;;1.00;1.00;;;16.70;66.00;;;;;;5066473;28;43995;-68
2021/12/26 00:29:17;;;;;;;1.20;1.20;;;16.70;66.10;;;;;;5066463;28;44032;-68
2021/12/26 00:31:45;;;;;;;1.20;1.20;;;16.60;66.20;;;;;;5066640;28;43477;-69
2021/12/26 00:34:13;;;;;;;1.30;1.30;;;16.60;66.40;;;;;;5067004;28;44031;-69
2021/12/26 00:36:41;;;;;;;1.17;1.17;;;16.50;66.40;;;;;;5066505;28;43662;-69
2021/12/26 00:39:10;;;;;;;1.20;1.20;;;16.50;66.60;;;;;;5058427;28;45051;-68
2021/12/26 00:41:43;;;;;;;1.60;1.60;;;16.50;66.60;;;;;;5059879;28;43994;-69
2021/12/26 00:44:11;;;;;;;1.20;1.20;;;16.50;66.80;;;;;;5067097;28;43958;-69
2021/12/26 00:46:40;;;;;;;1.23;1.23;;;16.40;66.70;;;;;;5066388;28;44014;-68
2021/12/26 00:49:08;;;;;;;1.20;1.20;;;16.40;66.80;;;;;;5064847;28;44245;-69
2021/12/26 00:51:36;;;;;;;1.20;1.20;;;16.40;66.90;;;;;;5066401;28;43983;-68
2021/12/26 00:54:04;;;;;;;1.00;1.00;;;16.40;66.90;;;;;;5066549;28;44313;-68
2021/12/26 00:56:32;;;;;;;1.10;1.10;;;16.40;67.00;;;;;;5064950;28;45691;-68
2021/12/26 00:59:02;;;;;;;1.17;1.17;;;16.50;66.90;;;;;;5066225;28;44002;-69
2021/12/26 01:01:33;;;;;;;1.10;1.10;;;16.60;66.40;;;;;;5064561;28;43990;-69
2021/12/26 01:04:02;;;;;;;1.23;1.23;;;16.80;66.00;;;;;;5066664;28;44240;-68
2021/12/26 01:06:30;;;;;;;1.37;1.37;;;16.90;65.60;;;;;;5064682;28;45924;-69
2021/12/26 01:08:58;;;;;;;1.27;1.27;;;17.00;65.30;;;;;;5064657;28;44007;-69
2021/12/26 01:11:35;;;;;;;1.20;1.20;;;16.90;65.20;;;;;;5064736;28;43391;-68
2021/12/26 01:14:06;;;;;;;1.30;1.30;;;16.90;65.50;;;;;;5065069;28;44046;-69
2021/12/26 01:17:02;;;;;;;1.20;1.20;;;16.80;65.70;;;;;;5063744;28;44621;-68
2021/12/26 01:19:42;;;;;;;1.07;1.07;;;16.70;66.00;;;;;;5068348;28;43408;-68
2021/12/26 01:22:10;;;;;;;1.10;1.10;;;16.60;66.10;;;;;;5068053;28;44050;-68
2021/12/26 01:24:40;;;;;;;1.40;1.30;;;16.60;66.40;;;;;;5068552;28;44008;-69
2021/12/26 01:27:08;;;;;;;1.20;1.20;;;16.50;66.40;;;;;;5068119;28;44317;-69
2021/12/26 01:29:38;;;;;;;1.30;1.30;;;16.50;66.50;;;;;;5067897;28;44937;-68
2021/12/26 01:32:07;;;;;;;1.37;1.37;;;16.50;66.60;;;;;;5068110;28;43817;-68
2021/12/26 01:34:54;;;;;;;1.30;1.30;;;16.50;66.80;;;;;;5067300;28;44005;-69
2021/12/26 01:37:32;;;;;;;1.27;1.27;;;16.50;66.80;;;;;;5067921;28;45664;-69
2021/12/26 01:40:19;;;;;;;1.20;1.20;;;16.60;66.40;;;;;;5063892;28;44852;-69
2021/12/26 01:43:02;;;;;;;1.10;1.10;;;16.70;66.10;;;;;;5068098;28;43936;-68
2021/12/26 01:45:50;;;;;;;1.00;1.00;;;16.60;66.70;;;;;;5068392;28;44047;-68
2021/12/26 01:48:18;;;;;;;1.07;1.07;;;16.60;66.10;;;;;;5067661;28;44922;-68
2021/12/26 01:50:47;;;;;;;1.17;1.17;;;16.60;66.30;;;;;;5067624;28;45196;-69
2021/12/26 01:53:16;;;;;;;1.30;1.30;;;16.50;66.30;;;;;;5067791;28;43873;-68
2021/12/26 01:55:46;;;;;;;1.20;1.20;;;16.50;66.50;;;;;;5067935;28;44071;-68
2021/12/26 01:58:17;;;;;;;1.30;1.30;;;16.50;66.60;;;;;;5067610;28;45560;-68
2021/12/26 02:00:46;;;;;;;1.20;1.20;;;16.50;66.70;;;;;;5067203;28;44673;-69
2021/12/26 02:03:16;;;;;;;1.27;1.27;;;16.40;66.70;;;;;;5067633;28;43942;-68
2021/12/26 02:05:44;;;;;;;1.27;1.27;;;16.40;66.80;;;;;;5069286;28;43966;-69
2021/12/26 02:08:13;;;;;;;1.20;1.20;;;16.40;66.80;;;;;;5067426;28;44743;-69
2021/12/26 02:10:43;;;;;;;1.10;1.10;;;16.40;66.80;;;;;;5067117;28;45170;-68
2021/12/26 02:13:11;;;;;;;1.23;1.23;;;16.40;66.90;;;;;;5067499;28;44082;-69
2021/12/26 02:15:39;;;;;;;1.30;1.30;;;16.40;67.00;;;;;;5067836;28;43971;-69
2021/12/26 02:18:11;;;;;;;1.27;1.27;;;16.50;66.90;;;;;;5067017;28;45920;-69
2021/12/26 02:20:53;;;;;;;1.13;1.13;;;16.60;66.40;;;;;;5067047;28;43913;-69
2021/12/26 02:23:23;;;;;;;1.33;1.33;;;16.80;66.10;;;;;;5067143;28;44028;-68
2021/12/26 02:28:39;;;;;;;1.40;1.40;;;16.90;65.40;;;;;;5066292;28;45425;-69
2021/12/26 02:31:07;;;;;;;1.10;1.10;;;16.90;65.40;;;;;;5066855;28;45038;-68
2021/12/26 02:33:35;;;;;;;1.37;1.37;;;16.80;65.50;;;;;;5067184;28;43982;-68
2021/12/26 02:36:05;;;;;;;1.40;1.40;;;16.70;65.70;;;;;;5067425;28;44028;-69
2021/12/26 02:38:33;;;;;;;1.23;1.23;;;16.70;66.00;;;;;;5066791;28;44089;-69
2021/12/26 02:41:01;;;;;;;1.20;1.20;;;16.60;66.10;;;;;;5066824;28;44811;-69
2021/12/26 02:43:30;;;;;;;1.20;1.20;;;16.60;66.30;;;;;;5067164;28;43955;-69
2021/12/26 02:46:04;;;;;;;1.30;1.30;;;16.50;66.30;;;;;;5068706;28;44002;-69
2021/12/26 02:48:32;;;;;;;1.20;1.20;;;16.50;66.50;;;;;;5068322;28;43983;-69
2021/12/26 02:51:01;;;;;;;1.30;1.30;;;16.50;66.60;;;;;;5066458;28;45166;-69
2021/12/26 02:53:33;;;;;;;1.40;1.40;;;16.40;66.50;;;;;;5066917;28;43494;-68
2021/12/26 02:56:01;;;;;;;1.30;1.30;;;16.50;66.80;;;;;;5067266;28;43955;-68
2021/12/26 02:58:29;;;;;;;1.40;1.40;;;16.60;66.60;;;;;;5066788;28;46569;-69
2021/12/26 03:01:01;;;;;;;1.30;1.30;;;16.60;66.80;;;;;;5066130;28;45877;-69
2021/12/26 03:03:29;;;;;;;1.27;1.27;;;16.70;65.90;;;;;;5066808;28;44072;-68
2021/12/26 03:06:01;;;;;;;1.30;1.30;;;16.60;65.80;;;;;;5066919;28;44073;-69
2021/12/26 03:08:29;;;;;;;1.20;1.20;;;16.60;66.00;;;;;;5066542;28;46237;-68
2021/12/26 03:10:59;;;;;;;1.30;1.30;;;16.60;66.10;;;;;;5066174;28;45053;-69
2021/12/26 03:13:27;;;;;;;1.30;1.30;;;16.50;66.20;;;;;;5066664;28;43918;-68
2021/12/26 03:15:55;;;;;;;1.47;1.47;;;16.50;66.30;;;;;;5066783;28;44003;-68
2021/12/26 03:18:23;;;;;;;1.53;1.53;;;16.50;66.50;;;;;;5066451;28;45431;-69
2021/12/26 03:20:51;;;;;;;1.43;1.43;;;16.50;66.60;;;;;;5067784;28;43400;-69
2021/12/26 03:23:21;;;;;;;1.30;1.30;;;16.40;66.60;;;;;;5066176;28;43975;-68
2021/12/26 03:25:49;;;;;;;1.30;1.30;;;16.40;66.60;;;;;;5066619;28;43964;-69
2021/12/26 03:28:18;;;;;;;1.33;1.33;;;16.40;66.70;;;;;;5066083;28;44051;-68
2021/12/26 03:30:46;;;;;;;1.20;1.20;;;16.40;66.70;;;;;;5067219;28;43927;-69
2021/12/26 03:33:14;;;;;;;1.33;1.33;;;16.40;66.80;;;;;;5066388;28;43380;-69
2021/12/26 03:35:43;;;;;;;1.30;1.30;;;16.40;66.90;;;;;;5068020;28;44048;-68
2021/12/26 03:38:12;;;;;;;1.60;1.60;;;16.50;66.60;;;;;;5066016;28;45799;-68
2021/12/26 03:40:46;;;;;;;1.40;1.40;;;16.70;66.30;;;;;;5063012;28;44045;-69
2021/12/26 03:43:14;;;;;;;1.60;1.60;;;16.80;65.80;;;;;;5067358;28;43431;-68
2021/12/26 03:45:48;;;;;;;1.60;1.60;;;16.90;65.30;;;;;;5066541;28;43475;-68
2021/12/26 03:48:16;;;;;;;1.37;1.37;;;16.90;65.10;;;;;;5059523;28;45757;-69
2021/12/26 03:50:44;;;;;;;1.20;1.20;;;16.90;65.20;;;;;;5060946;28;44007;-69
2021/12/26 03:53:12;;;;;;;1.50;1.50;;;16.80;65.20;;;;;;5059512;28;44044;-69
2021/12/26 03:55:44;;;;;;;1.50;1.50;;;16.70;65.50;;;;;;5066278;28;43785;-69
2021/12/26 03:58:13;;;;;;;1.30;1.30;;;16.70;65.80;;;;;;5065651;28;44763;-67
2021/12/26 04:00:41;;;;;;;1.40;1.40;;;16.60;65.90;;;;;;5066970;28;43368;-68
2021/12/26 04:03:11;;;;;;;1.23;1.23;;;16.60;66.10;;;;;;5065683;28;43982;-69
2021/12/26 04:05:49;;;;;;;1.33;1.33;;;16.50;66.20;;;;;;5066342;28;43483;-69
2021/12/26 04:08:17;;;;;;;1.50;1.50;;;16.50;66.20;;;;;;5065430;28;44062;-68
2021/12/26 04:10:45;;;;;;;1.40;1.40;;;16.50;66.30;;;;;;5066804;28;43285;-69
2021/12/26 04:13:15;;;;;;;1.40;1.40;;;16.40;66.40;;;;;;5065563;28;44032;-68
2021/12/26 04:15:44;;;;;;;1.60;1.60;;;16.50;66.70;;;;;;5065881;28;43983;-69
2021/12/26 04:18:15;;;;;;;1.50;1.50;;;16.50;66.40;;;;;;5065410;28;45991;-68
2021/12/26 04:20:45;;;;;;;1.30;1.30;;;16.60;66.00;;;;;;5065391;28;44754;-68
2021/12/26 04:23:15;;;;;;;1.40;1.40;;;16.60;65.80;;;;;;5065046;28;44137;-69
2021/12/26 04:25:44;;;;;;;1.40;1.40;;;16.60;65.70;;;;;;5065935;28;43943;-70
2021/12/26 04:28:12;;;;;;;1.40;1.40;;;16.60;65.80;;;;;;5065412;28;45694;-68
2021/12/26 04:30:42;;;;;;;1.70;1.63;;;16.60;66.10;;;;;;5065322;28;44044;-68
2021/12/26 04:33:10;;;;;;;2.20;2.10;;;16.50;66.10;;;;;;5065231;28;43986;-68
2021/12/26 04:35:40;;;;;;;3.00;2.77;;;16.50;66.20;;;;;;5065586;28;44080;-69
2021/12/26 04:38:10;;;;;;;4.83;2.80;;;16.40;66.40;;;;;;5065105;28;46135;-69
2021/12/26 04:40:38;;;;;;;4.57;2.77;;;16.40;66.40;;;;;;5066359;28;43435;-69
2021/12/26 04:43:22;;;;;;;8.23;4.00;;;16.40;66.50;;;;;;5065597;28;43908;-68
2021/12/26 04:46:10;;;;;;;6.37;3.60;;;16.40;66.60;;;;;;5063158;28;43581;-68
2021/12/26 04:48:57;;;;;;;10.50;4.17;;;16.30;66.60;;;;;;5063418;28;43620;-68
2021/12/26 04:51:26;;;;;;;7.83;4.47;;;16.30;66.60;;;;;;5065520;28;45029;-68
2021/12/26 04:53:56;;;;;;;11.60;4.37;;;16.30;66.90;;;;;;5068682;28;43927;-69
2021/12/26 04:56:24;;;;;;;9.03;4.77;;;16.40;67.00;;;;;;5069292;28;43994;-69
2021/12/26 04:58:52;;;;;;;10.10;4.47;;;16.50;66.70;;;;;;5068635;28;46030;-70
2021/12/26 05:01:20;;;;;;;11.77;4.83;;;16.60;66.30;;;;;;5070130;28;43420;-69
2021/12/26 05:03:48;;;;;;;9.03;4.70;;;16.80;65.80;;;;;;5069997;28;43361;-69
2021/12/26 05:06:16;;;;;;;10.37;5.20;;;16.80;65.30;;;;;;5070295;28;43852;-69
2021/12/26 05:08:45;;;;;;;9.47;5.07;;;16.90;65.10;;;;;;5068302;28;46281;-69
2021/12/26 05:11:13;;;;;;;9.67;5.00;;;16.80;65.00;;;;;;5068169;28;44696;-68
2021/12/26 05:13:41;;;;;;;9.13;4.77;;;16.80;65.30;;;;;;5069831;28;43838;-69
2021/12/26 05:16:12;;;;;;;11.97;4.57;;;16.70;65.50;;;;;;5070429;28;43936;-68
2021/12/26 05:18:40;;;;;;;8.27;4.40;;;16.60;65.70;;;;;;5061530;28;44918;-68
2021/12/26 05:21:08;;;;;;;9.43;4.77;;;16.60;65.90;;;;;;5061343;28;45960;-69
2021/12/26 05:23:37;;;;;;;9.13;4.73;;;16.50;66.00;;;;;;5048444;28;44042;-68
2021/12/26 05:26:07;;;;;;;7.87;4.93;;;16.50;66.30;;;;;;5079137;28;43980;-68
2021/12/26 05:28:35;;;;;;;6.63;4.57;;;16.50;66.30;;;;;;5067784;28;45010;-69
2021/12/26 05:31:05;;;;;;;10.77;4.60;;;16.40;66.20;;;;;;5067992;28;44013;-68
2021/12/26 05:33:40;;;;;;;5.83;4.47;;;16.40;66.40;;;;;;5068224;28;43865;-69
2021/12/26 05:36:08;;;;;;;10.33;4.50;;;16.40;66.60;;;;;;5068392;28;43510;-69
2021/12/26 05:38:39;;;;;;;11.40;4.77;;;16.50;66.30;;;;;;5067922;28;43960;-69
2021/12/26 05:41:08;;;;;;;9.43;5.10;;;16.60;65.90;;;;;;5067856;28;44862;-70
2021/12/26 05:43:43;;;;;;;5.57;4.27;;;16.60;65.80;;;;;;5067981;28;43809;-69
2021/12/26 05:46:11;;;;;;;6.37;4.40;;;16.60;65.60;;;;;;5068133;28;43873;-68
2021/12/26 05:48:39;;;;;;;9.03;4.63;;;16.60;65.90;;;;;;5068092;28;45852;-68
2021/12/26 05:51:23;;;;;;;6.73;4.30;;;16.60;66.00;;;;;;5067867;28;43380;-68
2021/12/26 05:54:13;;;;;;;7.43;4.30;;;16.50;66.10;;;;;;5068508;28;43370;-68
2021/12/26 05:56:44;;;;;;;7.50;4.47;;;16.50;66.30;;;;;;5067986;28;43952;-69
2021/12/26 05:59:12;;;;;;;6.57;4.77;;;16.40;66.30;;;;;;5067433;28;46620;-68
2021/12/26 06:01:41;;;;;;;6.10;4.20;;;16.40;66.40;;;;;;5067286;28;43432;-68
2021/12/26 06:04:10;;;;;;;7.63;4.13;;;16.40;66.50;;;;;;5066636;28;43947;-68
2021/12/26 06:06:38;;;;;;;5.70;4.13;;;16.40;66.60;;;;;;5067908;28;43597;-68
2021/12/26 06:09:07;;;;;;;7.97;4.67;;;16.30;66.60;;;;;;5067189;28;45846;-68
2021/12/26 06:11:38;;;;;;;6.77;4.33;;;16.30;66.70;;;;;;5067255;28;43806;-69
2021/12/26 06:14:07;;;;;;;7.57;4.37;;;16.30;66.90;;;;;;5067572;28;43447;-68
2021/12/26 06:16:35;;;;;;;8.00;4.60;;;16.40;66.80;;;;;;5067631;28;43964;-68
2021/12/26 06:19:09;;;;;;;7.33;4.20;;;16.50;66.60;;;;;;5067103;28;44921;-69
2021/12/26 06:22:06;;;;;;;7.87;4.10;;;16.60;66.10;;;;;;5067913;28;43943;-69
2021/12/26 06:24:55;;;;;;;8.03;4.10;;;16.80;65.60;;;;;;5067379;28;44080;-68
2021/12/26 06:27:30;;;;;;;7.37;4.50;;;16.80;65.20;;;;;;5067674;28;43956;-68
2021/12/26 06:30:31;;;;;;;6.47;4.20;;;16.80;65.10;;;;;;5055429;28;44208;-68
2021/12/26 06:33:22;;;;;;;4.93;3.60;;;16.70;65.40;;;;;;5068362;28;44014;-68
2021/12/26 06:36:09;;;;;;;6.03;3.90;;;16.60;65.70;;;;;;5065709;28;43926;-69
2021/12/26 06:38:55;;;;;;;4.47;3.83;;;16.60;66.00;;;;;;5065863;28;43970;-68
2021/12/26 06:41:41;;;;;;;5.20;3.97;;;16.50;66.10;;;;;;5065332;28;44061;-68
2021/12/26 06:44:28;;;;;;;6.17;3.53;;;16.40;66.20;;;;;;5061443;28;43947;-69
2021/12/26 06:47:06;;;;;;;4.13;3.83;;;16.40;66.30;;;;;;5066631;28;43844;-68
2021/12/26 06:49:38;;;;;;;5.53;3.90;;;16.40;66.40;;;;;;5067268;28;44049;-69
2021/12/26 06:52:07;;;;;;;5.37;3.83;;;16.40;66.50;;;;;;5068040;28;44033;-69
2021/12/26 06:54:36;;;;;;;5.47;4.13;;;16.30;66.90;;;;;;5067963;28;43935;-68
2021/12/26 06:57:05;;;;;;;6.37;4.00;;;16.40;66.70;;;;;;5068323;28;43903;-69
2021/12/26 06:59:33;;;;;;;4.97;3.73;;;16.50;66.30;;;;;;5068323;28;44066;-69
2021/12/26 07:02:01;;;;;;;5.77;3.97;;;16.60;66.10;;;;;;5066409;28;45702;-68
2021/12/26 07:04:47;;;;;;;6.30;4.03;;;16.60;65.80;;;;;;5066617;28;43433;-68
2021/12/26 07:07:20;;;;;;;5.33;3.93;;;16.60;65.80;;;;;;5066694;28;43356;-69
2021/12/26 07:09:48;;;;;;;3.93;3.63;;;16.50;65.90;;;;;;5066874;28;44277;-69
2021/12/26 07:12:19;;;;;;;4.13;3.67;;;16.50;66.00;;;;;;5066486;28;46094;-69
2021/12/26 07:14:59;;;;;;;4.03;3.63;;;16.50;66.20;;;;;;5066236;28;44017;-69
2021/12/26 07:17:27;;;;;;;4.40;3.63;;;16.40;66.20;;;;;;5066467;28;43356;-69
2021/12/26 07:19:57;;;;;;;5.10;3.60;;;16.40;66.20;;;;;;5066769;28;43965;-69
2021/12/26 07:22:51;;;;;;;6.07;4.00;;;16.40;66.40;;;;;;5066319;28;43959;-69
2021/12/26 07:25:19;;;;;;;3.70;3.30;;;16.40;66.40;;;;;;5067965;28;43888;-68
2021/12/26 07:27:48;;;;;;;4.33;3.50;;;16.40;66.50;;;;;;5066307;28;44005;-69
2021/12/26 07:30:34;;;;;;;3.80;3.50;;;16.30;66.50;;;;;;5064866;28;43543;-68
2021/12/26 07:33:02;;;;;;;3.80;3.37;;;16.30;66.60;;;;;;5065856;28;44004;-69
2021/12/26 07:35:33;;;;;;;3.50;3.20;;;16.30;66.70;;;;;;5065986;28;43930;-69
2021/12/26 07:38:21;;;;;;;5.07;3.50;;;16.40;66.70;;;;;;5067189;28;43916;-68
2021/12/26 07:40:49;;;;;;;3.70;3.40;;;16.50;66.30;;;;;;5066282;28;43869;-69
2021/12/26 07:43:29;;;;;;;3.50;3.20;;;16.70;65.90;;;;;;5065545;28;44077;-68
2021/12/26 07:46:16;;;;;;;4.80;3.40;;;16.80;65.40;;;;;;5063914;28;43725;-68
2021/12/26 07:48:46;;;;;;;3.60;3.30;;;16.80;65.00;;;;;;5065652;28;43865;-69
2021/12/26 07:51:35;;;;;;;3.40;3.20;;;16.80;65.00;;;;;;5067148;28;44103;-69
2021/12/26 07:54:23;;;;;;;3.13;2.87;;;16.70;65.30;;;;;;5064120;28;43967;-68
2021/12/26 07:57:09;;;;;;;3.30;3.00;;;16.70;65.60;;;;;;5064223;28;43814;-70
2021/12/26 07:59:55;;;;;;;3.30;3.00;;;16.60;65.80;;;;;;5063976;28;43775;-69
2021/12/26 08:02:42;;;;;;;3.23;3.03;;;16.50;65.90;;;;;;5064171;28;43965;-69
2021/12/26 08:05:36;;;;;;;3.10;2.90;;;16.50;66.10;;;;;;5066096;28;43807;-68
2021/12/26 08:08:31;;;;;;;3.20;3.00;;;16.40;66.20;;;;;;5064949;28;43803;-69
2021/12/26 08:10:59;;;;;;;3.23;3.00;;;16.40;66.30;;;;;;5065194;28;44087;-68
2021/12/26 08:13:32;;;;;;;3.40;3.10;;;16.40;66.40;;;;;;5065467;28;44055;-69
2021/12/26 08:16:00;;;;;;;3.60;3.30;;;16.40;66.50;;;;;;5064952;28;44071;-69
2021/12/26 08:18:28;;;;;;;3.30;3.10;;;16.40;66.40;;;;;;5066383;28;44082;-68
2021/12/26 08:20:56;;;;;;;3.43;3.13;;;16.50;66.00;;;;;;5066332;28;44036;-69
2021/12/26 08:23:24;;;;;;;3.63;3.10;;;16.60;65.80;;;;;;5066559;28;43604;-68
2021/12/26 08:25:53;;;;;;;3.30;3.10;;;16.60;65.70;;;;;;5065918;28;44062;-69
2021/12/26 08:28:21;;;;;;;2.93;2.73;;;16.50;65.70;;;;;;5066343;28;44034;-69
2021/12/26 08:30:49;;;;;;;2.73;2.50;;;16.50;65.90;;;;;;5066602;28;44000;-68
2021/12/26 08:33:17;;;;;;;3.10;2.90;;;16.50;66.00;;;;;;5066585;28;43963;-68
2021/12/26 08:35:46;;;;;;;2.77;2.67;;;16.50;66.20;;;;;;5064730;28;44228;-69
2021/12/26 08:38:15;;;;;;;2.87;2.67;;;16.40;66.10;;;;;;5066169;28;43435;-68
2021/12/26 08:40:43;;;;;;;2.90;2.70;;;16.40;66.30;;;;;;5066209;28;43770;-68
2021/12/26 08:43:12;;;;;;;4.00;3.13;;;16.40;66.40;;;;;;5066513;28;43571;-69
2021/12/26 08:45:40;;;;;;;3.00;2.80;;;16.40;66.40;;;;;;5066128;28;44053;-68
2021/12/26 08:48:08;;;;;;;2.80;2.60;;;16.40;66.40;;;;;;5066019;28;43991;-69
2021/12/26 08:50:40;;;;;;;2.80;2.60;;;16.30;66.40;;;;;;5066348;28;43997;-69
2021/12/26 08:53:09;;;;;;;2.97;2.77;;;16.30;66.40;;;;;;5066272;28;43497;-68
2021/12/26 08:55:37;;;;;;;3.17;2.80;;;16.30;66.60;;;;;;5066032;28;44082;-69
2021/12/26 08:58:06;;;;;;;3.10;2.90;;;16.30;66.70;;;;;;5066004;28;44026;-69
2021/12/26 09:00:36;;;;;;;3.20;2.97;;;16.50;66.50;;;;;;5066022;28;43916;-68
2021/12/26 09:03:04;;;;;;;2.63;2.53;;;16.60;66.00;;;;;;5059619;28;44054;-69
2021/12/26 09:05:32;;;;;;;2.80;2.60;;;16.70;65.50;;;;;;5059238;28;43999;-68
2021/12/26 09:08:01;;;;;;;3.03;2.80;;;16.80;65.20;;;;;;5059253;28;43431;-68
2021/12/26 09:10:30;;;;;;;2.60;2.50;;;16.80;65.00;;;;;;5059421;28;44075;-68
2021/12/26 09:12:57;;;;;;;2.27;2.17;;;16.80;65.00;;;;;;5059823;28;43442;-68
2021/12/26 09:15:25;;;;;;;2.80;2.60;;;16.70;65.30;;;;;;5059342;28;43615;-69
2021/12/26 09:17:55;;;;;;;2.97;2.77;;;16.60;65.50;;;;;;5059596;28;44045;-69
2021/12/26 09:20:24;;;;;;;2.40;2.27;;;16.60;65.80;;;;;;5059796;28;43951;-69
2021/12/26 09:22:52;;;;;;;2.90;2.70;;;16.50;65.90;;;;;;5066046;28;43813;-68
2021/12/26 09:25:20;;;;;;;3.00;2.73;;;16.50;66.10;;;;;;5065398;28;44084;-69
2021/12/26 09:27:48;;;;;;;2.60;2.50;;;16.40;66.20;;;;;;5064173;28;43948;-69
2021/12/26 09:30:15;;;;;;;2.67;2.47;;;16.40;66.30;;;;;;5065722;28;43909;-69
2021/12/26 09:32:44;;;;;;;2.50;2.40;;;16.40;66.30;;;;;;5065906;28;44077;-70
2021/12/26 09:35:13;;;;;;;3.07;2.83;;;16.40;66.30;;;;;;5065328;28;43904;-68
2021/12/26 09:37:43;;;;;;;2.80;2.60;;;16.30;66.10;;;;;;5066367;28;43366;-69
2021/12/26 09:40:12;;;;;;;2.60;2.43;;;16.40;66.00;;;;;;5068792;28;44022;-70
2021/12/26 09:42:40;;;;;;;3.30;3.10;;;16.50;65.70;;;;;;5069396;28;43911;-69
2021/12/26 09:45:09;;;;;;;2.93;2.80;;;16.60;64.90;;;;;;5068656;28;44034;-69
2021/12/26 09:47:38;;;;;;;3.30;3.20;;;16.60;64.30;;;;;;5068739;28;43955;-69
2021/12/26 09:50:06;;;;;;;3.50;3.30;;;16.50;63.90;;;;;;5068920;28;43991;-69
2021/12/26 09:52:36;;;;;;;3.00;2.90;;;16.50;63.80;;;;;;5069335;28;44367;-68
2021/12/26 09:55:04;;;;;;;2.90;2.80;;;16.40;64.00;;;;;;5068268;28;45030;-69
2021/12/26 09:57:32;;;;;;;3.17;3.03;;;16.40;64.30;;;;;;5068722;28;43831;-70
2021/12/26 10:00:00;;;;;;;3.00;2.80;;;16.30;64.50;;;;;;5068844;28;43448;-69
2021/12/26 10:02:30;;;;;;;2.90;2.80;;;16.30;64.70;;;;;;5068858;28;43620;-69
2021/12/26 10:04:58;;;;;;;2.50;2.40;;;16.30;65.00;;;;;;5068350;28;43904;-68
2021/12/26 10:07:26;;;;;;;2.87;2.67;;;16.30;65.10;;;;;;5068610;28;44002;-69
2021/12/26 10:09:55;;;;;;;2.60;2.50;;;16.20;65.20;;;;;;5068800;28;43930;-69
2021/12/26 10:12:23;;;;;;;2.60;2.50;;;16.20;65.40;;;;;;5069007;28;44220;-69
2021/12/26 10:14:52;;;;;;;2.87;2.77;;;16.20;65.50;;;;;;5068392;28;44048;-69
2021/12/26 10:17:25;;;;;;;2.53;2.43;;;16.20;65.60;;;;;;5068556;28;44009;-69
2021/12/26 10:20:00;;;;;;;2.87;2.40;;;16.30;65.70;;;;;;5068908;28;44039;-69
2021/12/26 10:22:29;;;;;;;2.60;2.37;;;16.40;65.40;;;;;;5068530;28;43870;-69
2021/12/26 10:24:59;;;;;;;2.57;2.47;;;16.60;65.00;;;;;;5067986;28;44015;-69
2021/12/26 10:27:29;;;;;;;2.70;2.60;;;16.70;64.60;;;;;;5068008;28;44069;-69
2021/12/26 10:29:58;;;;;;;2.47;2.37;;;16.70;64.20;;;;;;5068604;28;43378;-69
2021/12/26 10:32:28;;;;;;;2.70;2.13;;;16.70;64.20;;;;;;5068629;28;43580;-69
2021/12/26 10:34:56;;;;;;;2.20;2.20;;;16.70;64.40;;;;;;5066319;28;44159;-69
2021/12/26 10:37:33;;;;;;;2.30;2.20;;;16.60;64.50;;;;;;5066649;28;45481;-69
2021/12/26 10:40:05;;;;;;;2.40;2.30;;;16.60;64.80;;;;;;5046996;28;43411;-68
2021/12/26 10:42:34;;;;;;;2.27;2.23;;;16.50;65.00;;;;;;5060556;28;43830;-69
2021/12/26 10:45:04;;;;;;;1.90;1.90;;;16.40;65.00;;;;;;5060505;28;44062;-69
2021/12/26 10:47:33;;;;;;;1.93;1.90;;;16.40;65.30;;;;;;5055204;28;44081;-67
2021/12/26 10:50:02;;;;;;;1.90;1.90;;;16.40;65.40;;;;;;5039223;22;44110;-76
2021/12/26 10:52:31;;;;;;;2.10;2.00;;;16.30;65.40;;;;;;5026698;28;44258;-75
2021/12/26 10:55:01;;;;;;;2.40;2.30;;;16.30;65.60;;;;;;5026851;28;44060;-74
2021/12/26 10:57:31;;;;;;;2.20;2.10;;;16.30;65.40;;;;;;5027559;28;43949;-75
2021/12/26 11:00:17;;;;;;;2.50;2.40;;;16.40;65.30;;;;;;5028147;28;43842;-75
2021/12/26 11:02:46;;;;;;;2.10;2.00;;;16.50;65.80;;;;;;5027828;28;44068;-74
2021/12/26 11:05:15;;;;;;;2.20;2.10;;;16.50;64.70;;;;;;5026920;28;44024;-75
2021/12/26 11:07:46;;;;;;;2.13;2.13;;;16.50;64.70;;;;;;5025816;28;46370;-75
2021/12/26 11:10:16;;;;;;;2.03;2.03;;;16.50;65.00;;;;;;5021086;28;43925;-75
2021/12/26 11:12:48;;;;;;;2.00;2.00;;;16.50;65.10;;;;;;5021775;28;43817;-76
2021/12/26 11:15:16;;;;;;;2.17;2.10;;;16.40;65.20;;;;;;5026975;28;45119;-75
2021/12/26 11:17:47;;;;;;;2.23;2.13;;;16.40;65.50;;;;;;5027856;28;44019;-74
2021/12/26 11:20:23;;;;;;;1.83;1.83;;;16.30;65.50;;;;;;5027063;28;43431;-74
2021/12/26 11:22:51;;;;;;;1.97;1.97;;;16.30;65.80;;;;;;5026271;28;43995;-75
2021/12/26 11:25:19;;;;;;;1.90;1.90;;;16.30;65.80;;;;;;5026759;28;43796;-75
2021/12/26 11:27:48;;;;;;;2.00;2.00;;;16.30;65.90;;;;;;5025618;28;43415;-75
2021/12/26 11:30:16;;;;;;;1.80;1.80;;;16.30;65.90;;;;;;5027058;28;43916;-75
2021/12/26 11:32:44;;;;;;;2.00;2.00;;;16.30;66.10;;;;;;5027364;28;44254;-75
2021/12/26 11:35:13;;;;;;;1.77;1.77;;;16.20;65.90;;;;;;5026489;28;43616;-75
2021/12/26 11:37:41;;;;;;;2.10;2.00;;;16.20;66.10;;;;;;5025304;28;44494;-74
2021/12/26 11:40:27;;;;;;;1.97;1.97;;;16.30;66.00;;;;;;5023989;28;44005;-75
2021/12/26 11:43:57;;;;;;;1.90;1.90;;;16.40;65.60;;;;;;5017379;28;43608;-74
2021/12/26 11:46:58;;;;;;;1.83;1.83;;;16.60;65.00;;;;;;5028325;28;43554;-75
2021/12/26 11:50:03;;;;;;;1.83;1.70;;;16.70;64.70;;;;;;5026053;28;43915;-75
2021/12/26 11:52:58;;;;;;;1.80;1.80;;;16.70;64.70;;;;;;5026515;28;44087;-75
2021/12/26 11:55:41;;;;;;;1.90;1.80;;;16.60;64.90;;;;;;5021824;28;44015;-74
2021/12/26 11:58:29;;;;;;;1.80;1.80;;;16.50;65.10;;;;;;5025327;28;44007;-75
2021/12/26 12:00:59;;;;;;;1.73;1.73;;;16.50;65.40;;;;;;5025683;28;43899;-74
2021/12/26 12:03:28;;;;;;;1.80;1.80;;;16.40;65.40;;;;;;5025158;28;43909;-76
2021/12/26 12:05:56;;;;;;;1.40;1.40;;;16.40;65.70;;;;;;5025474;28;43984;-75
2021/12/26 12:08:28;;;;;;;1.77;1.77;;;16.30;65.80;;;;;;5026478;28;44020;-73
2021/12/26 12:10:57;;;;;;;1.90;1.90;;;16.30;65.90;;;;;;5026196;28;43982;-76
2021/12/26 12:13:50;;;;;;;1.50;1.50;;;16.30;66.00;;;;;;5024843;28;43925;-75
2021/12/26 12:16:31;;;;;;;1.73;1.73;;;16.30;66.10;;;;;;5026607;28;43479;-76
2021/12/26 12:19:00;;;;;;;1.67;1.67;;;16.30;66.10;;;;;;5025164;28;45614;-75
2021/12/26 12:21:33;;;;;;;1.70;1.70;;;16.40;66.10;;;;;;5024652;28;44860;-74
2021/12/26 12:24:03;;;;;;;1.70;1.70;;;16.50;65.60;;;;;;5024748;28;44027;-76
2021/12/26 12:26:45;;;;;;;2.20;1.83;;;16.60;65.20;;;;;;5026311;28;44036;-76
2021/12/26 12:29:14;;;;;;;1.60;1.60;;;16.70;65.00;;;;;;5020600;28;44040;-74
2021/12/26 12:31:43;;;;;;;1.60;1.60;;;16.60;64.90;;;;;;5025862;28;43628;-76
2021/12/26 12:34:13;;;;;;;1.77;1.77;;;16.60;64.90;;;;;;5024647;28;44044;-74
2021/12/26 12:36:43;;;;;;;1.60;1.60;;;16.60;65.20;;;;;;5026572;28;43998;-75
2021/12/26 12:39:16;;;;;;;1.60;1.60;;;16.50;65.30;;;;;;5025854;28;44391;-74
2021/12/26 12:41:45;;;;;;;1.70;1.70;;;16.50;65.50;;;;;;5026392;28;43884;-76
2021/12/26 12:44:44;;;;;;;1.73;1.73;;;16.40;65.60;;;;;;5025963;28;43952;-76
2021/12/26 12:47:21;;;;;;;1.87;1.87;;;16.40;65.80;;;;;;5003242;28;43950;-74
2021/12/26 12:49:50;;;;;;;1.67;1.67;;;16.30;65.80;;;;;;5020450;28;43940;-76
2021/12/26 12:52:45;;;;;;;1.70;1.70;;;16.30;65.90;;;;;;5025753;28;43966;-74
2021/12/26 12:55:18;;;;;;;1.70;1.70;;;16.30;66.00;;;;;;5025773;28;44031;-75
2021/12/26 12:57:48;;;;;;;1.67;1.67;;;16.30;66.10;;;;;;5026411;28;44012;-74
2021/12/26 13:00:38;;;;;;;1.50;1.50;;;16.30;66.20;;;;;;5025607;28;43952;-75
2021/12/26 13:03:08;;;;;;;1.73;1.73;;;16.40;66.00;;;;;;5025850;28;43970;-75
2021/12/26 13:05:36;;;;;;;1.80;1.80;;;16.50;65.60;;;;;;5025575;28;43983;-73
2021/12/26 13:08:06;;;;;;;1.50;1.50;;;16.50;65.60;;;;;;5025910;28;44001;-75
2021/12/26 13:10:34;;;;;;;1.60;1.60;;;16.40;65.50;;;;;;5025371;28;44995;-74
2021/12/26 13:13:06;;;;;;;1.50;1.50;;;16.40;65.70;;;;;;5027092;28;43931;-74
2021/12/26 13:15:36;;;;;;;1.50;1.50;;;16.40;65.80;;;;;;5029128;28;43964;-75